Campbell Hill, Illinois
Current Conditions -  °F | °C
As of 1:15 PM on Friday 24 Oct 2014 (Local Time) from KSAR Reporting Station
Broken Clouds Broken Clouds  
Wind Chill: 66°   Ceiling: 1700
Heat Index: 66°   Visibility: 10mi
Dew Point: 57°   Wind: 3mph
Humidity: 74%   Direction: 240°WSW
Pressure: 30.09"   Gusts: NA
Location:  37.93°N, 89.55°W
Report Text: KSAR 241815Z AUTO 24003KT 10SM BKN017 19/14 A3009 RMK AO2 T01870139
Loading
Personal Weather Stations






























Interactive Weather Map
Tropical Storm Tracking
New forecast layout! Learn more

10-Day Weather Forecast

Advertisements
Track Severe Weather on mobile